This is the latest recevied weather packets stored in our database for station/object VE7GEL. If no packets are shown the sender has not sent any weather packets the latest 10 day(s).
| Time | Temp. | Humidity | Pressure | Rain* | Wind** | Luminosity | Snow |
|---|---|---|---|---|---|---|---|
| 1777731643 | 11.67° C | 93% | 1017.2 hPa | 0 mm | - | 20 W/m² | - |
| 1777730740 | 11.11° C | 95% | 1017.3 hPa | 0 mm | - | 16 W/m² | - |
| 1777729839 | 10.56° C | 96% | 1017.1 hPa | 0 mm | - | 9 W/m² | - |
| 1777728937 | 10.56° C | 94% | 1017.2 hPa | 0 mm | - | 6 W/m² | - |
| 1777728036 | 11.11° C | 91% | 1017 hPa | 0 mm | - | 4 W/m² | - |
| 1777727703 | 11.11° C | 91% | 1017.2 hPa | 0 mm | - | 3 W/m² | - |
| 1777727138 | 11.67° C | 89% | 1016.9 hPa | 0 mm | - | 3 W/m² | - |
| 1777726236 | 12.22° C | 88% | 1016.7 hPa | 0 mm | - | 0 W/m² | - |
| 1777725902 | 12.22° C | 88% | 1017 hPa | 0 mm | - | 0 W/m² | - |
| 1777725334 | 12.22° C | 87% | 1016.5 hPa | 0 mm | - | 0 W/m² | - |
| 1777724435 | 12.22° C | 86% | 1016.4 hPa | 0 mm | - | 0 W/m² | - |
| 1777724103 | 12.22° C | 86% | 1016.8 hPa | 0 mm | - | 0 W/m² | - |
| 1777723534 | 12.22° C | 86% | 1016.4 hPa | 0 mm | - | 0 W/m² | - |
| 1777722636 | 12.22° C | 85% | 1016.5 hPa | 0 mm | - | 0 W/m² | - |
| 1777722378 | 12.78° C | 85% | 1016.8 hPa | 0 mm | - | 0 W/m² | - |
| 1777722302 | 12.78° C | 85% | 1016.8 hPa | 0 mm | - | 0 W/m² | - |
| 1777721734 | 12.78° C | 86% | 1016.3 hPa | 0 mm | - | 0 W/m² | - |
| 1777720832 | 12.22° C | 86% | 1016.2 hPa | 0 mm | - | 0 W/m² | - |
| 1777720502 | 12.22° C | 86% | 1016.4 hPa | 0 mm | - | 0 W/m² | - |
| 1777719934 | 12.22° C | 84% | 1016.2 hPa | 0 mm | - | 0 W/m² | - |
| 1777719032 | 12.22° C | 84% | 1016.1 hPa | 0 mm | - | 0 W/m² | - |
| 1777718703 | 12.22° C | 85% | 1016.5 hPa | 0 mm | - | 0 W/m² | - |
| 1777718131 | 12.22° C | 84% | 1016.1 hPa | 0 mm | - | 0 W/m² | - |
| 1777717230 | 12.78° C | 83% | 1016 hPa | 0 mm | - | 0 W/m² | - |
| 1777716331 | 12.78° C | 83% | 1016 hPa | 0 mm | - | 0 W/m² | - |
* Rain latest hour (hover to see other rain measurements)
** Current wind speed in m/s (hover to see current wind gust speed)